sensor_id;sensor_type;location;lat;lon;timestamp;P1;durP1;ratioP1;P2;durP2;ratioP2
69083;SDS011;56185;48.526;9.044;2023-06-04T00:00:26;7.97;;;5.67;;
69083;SDS011;56185;48.526;9.044;2023-06-04T00:02:51;8.95;;;5.78;;
69083;SDS011;56185;48.526;9.044;2023-06-04T00:05:16;9.13;;;6.00;;
69083;SDS011;56185;48.526;9.044;2023-06-04T00:07:42;9.23;;;5.97;;
69083;SDS011;56185;48.526;9.044;2023-06-04T00:10:07;9.18;;;5.85;;
69083;SDS011;56185;48.526;9.044;2023-06-04T00:12:33;8.98;;;5.97;;
69083;SDS011;56185;48.526;9.044;2023-06-04T00:14:58;17.23;;;5.90;;
69083;SDS011;56185;48.526;9.044;2023-06-04T00:17:23;10.10;;;6.13;;
69083;SDS011;56185;48.526;9.044;2023-06-04T00:19:48;11.73;;;6.47;;
69083;SDS011;56185;48.526;9.044;2023-06-04T00:22:14;8.93;;;5.93;;
69083;SDS011;56185;48.526;9.044;2023-06-04T00:24:39;11.00;;;6.20;;
69083;SDS011;56185;48.526;9.044;2023-06-04T00:27:05;10.17;;;6.40;;
69083;SDS011;56185;48.526;9.044;2023-06-04T00:29:31;9.02;;;5.88;;
69083;SDS011;56185;48.526;9.044;2023-06-04T00:31:56;9.43;;;6.20;;
69083;SDS011;56185;48.526;9.044;2023-06-04T00:34:22;10.33;;;5.93;;
69083;SDS011;56185;48.526;9.044;2023-06-04T00:36:47;8.83;;;5.87;;
69083;SDS011;56185;48.526;9.044;2023-06-04T00:39:12;12.97;;;6.53;;
69083;SDS011;56185;48.526;9.044;2023-06-04T00:41:37;8.70;;;5.80;;
69083;SDS011;56185;48.526;9.044;2023-06-04T00:44:02;11.63;;;5.80;;
69083;SDS011;56185;48.526;9.044;2023-06-04T00:46:28;8.80;;;5.83;;
69083;SDS011;56185;48.526;9.044;2023-06-04T00:48:54;8.35;;;6.13;;
69083;SDS011;56185;48.526;9.044;2023-06-04T00:51:20;8.98;;;5.82;;
69083;SDS011;56185;48.526;9.044;2023-06-04T00:53:46;10.02;;;6.22;;
69083;SDS011;56185;48.526;9.044;2023-06-04T00:56:13;8.38;;;6.25;;
69083;SDS011;56185;48.526;9.044;2023-06-04T00:58:39;8.98;;;6.10;;
69083;SDS011;56185;48.526;9.044;2023-06-04T01:01:04;13.57;;;6.70;;
69083;SDS011;56185;48.526;9.044;2023-06-04T01:03:34;8.95;;;6.13;;
69083;SDS011;56185;48.526;9.044;2023-06-04T01:08:37;9.52;;;6.20;;
69083;SDS011;56185;48.526;9.044;2023-06-04T01:11:04;9.68;;;6.25;;
69083;SDS011;56185;48.526;9.044;2023-06-04T01:13:29;8.40;;;6.47;;
69083;SDS011;56185;48.526;9.044;2023-06-04T01:15:55;11.80;;;6.60;;
69083;SDS011;56185;48.526;9.044;2023-06-04T01:18:21;7.50;;;5.97;;
69083;SDS011;56185;48.526;9.044;2023-06-04T01:20:51;11.18;;;6.38;;
69083;SDS011;56185;48.526;9.044;2023-06-04T01:26:01;8.95;;;6.90;;
69083;SDS011;56185;48.526;9.044;2023-06-04T01:28:28;8.93;;;5.93;;
69083;SDS011;56185;48.526;9.044;2023-06-04T01:30:54;10.63;;;6.80;;
69083;SDS011;56185;48.526;9.044;2023-06-04T01:33:20;9.98;;;6.78;;
69083;SDS011;56185;48.526;9.044;2023-06-04T01:35:45;10.53;;;7.10;;
69083;SDS011;56185;48.526;9.044;2023-06-04T01:38:11;13.00;;;7.00;;
69083;SDS011;56185;48.526;9.044;2023-06-04T01:40:36;12.70;;;7.32;;
69083;SDS011;56185;48.526;9.044;2023-06-04T01:43:02;12.27;;;7.85;;
69083;SDS011;56185;48.526;9.044;2023-06-04T01:45:28;10.70;;;7.50;;
69083;SDS011;56185;48.526;9.044;2023-06-04T01:47:54;9.50;;;6.88;;
69083;SDS011;56185;48.526;9.044;2023-06-04T01:50:20;14.00;;;7.60;;
69083;SDS011;56185;48.526;9.044;2023-06-04T01:52:45;11.07;;;7.10;;
69083;SDS011;56185;48.526;9.044;2023-06-04T01:55:11;10.75;;;6.78;;
69083;SDS011;56185;48.526;9.044;2023-06-04T01:57:38;11.73;;;7.10;;
69083;SDS011;56185;48.526;9.044;2023-06-04T02:00:05;10.25;;;7.38;;
69083;SDS011;56185;48.526;9.044;2023-06-04T02:02:31;8.77;;;6.82;;
69083;SDS011;56185;48.526;9.044;2023-06-04T02:04:56;9.40;;;6.73;;
69083;SDS011;56185;48.526;9.044;2023-06-04T02:07:21;10.53;;;6.80;;
69083;SDS011;56185;48.526;9.044;2023-06-04T02:09:47;9.83;;;6.70;;
69083;SDS011;56185;48.526;9.044;2023-06-04T02:12:12;10.25;;;7.25;;
69083;SDS011;56185;48.526;9.044;2023-06-04T02:14:37;13.37;;;7.23;;
69083;SDS011;56185;48.526;9.044;2023-06-04T02:17:03;8.97;;;6.57;;
69083;SDS011;56185;48.526;9.044;2023-06-04T02:19:29;10.15;;;6.40;;
69083;SDS011;56185;48.526;9.044;2023-06-04T02:21:54;10.95;;;6.18;;
69083;SDS011;56185;48.526;9.044;2023-06-04T02:24:19;12.83;;;6.80;;
69083;SDS011;56185;48.526;9.044;2023-06-04T02:26:45;10.40;;;6.78;;
69083;SDS011;56185;48.526;9.044;2023-06-04T02:29:10;10.30;;;6.93;;
69083;SDS011;56185;48.526;9.044;2023-06-04T02:31:35;9.27;;;6.43;;
69083;SDS011;56185;48.526;9.044;2023-06-04T02:34:00;10.73;;;6.37;;
69083;SDS011;56185;48.526;9.044;2023-06-04T02:36:26;9.10;;;6.40;;
69083;SDS011;56185;48.526;9.044;2023-06-04T02:38:51;9.60;;;6.93;;
69083;SDS011;56185;48.526;9.044;2023-06-04T02:41:16;11.60;;;6.73;;
69083;SDS011;56185;48.526;9.044;2023-06-04T02:43:41;10.30;;;6.60;;
69083;SDS011;56185;48.526;9.044;2023-06-04T02:46:07;11.37;;;6.30;;
69083;SDS011;56185;48.526;9.044;2023-06-04T02:48:32;11.33;;;6.70;;
69083;SDS011;56185;48.526;9.044;2023-06-04T02:50:57;9.67;;;6.00;;
69083;SDS011;56185;48.526;9.044;2023-06-04T02:53:22;8.67;;;6.33;;
69083;SDS011;56185;48.526;9.044;2023-06-04T02:55:47;13.30;;;7.07;;
69083;SDS011;56185;48.526;9.044;2023-06-04T02:58:13;9.00;;;6.00;;
69083;SDS011;56185;48.526;9.044;2023-06-04T03:00:38;8.90;;;6.60;;
69083;SDS011;56185;48.526;9.044;2023-06-04T03:03:03;13.00;;;7.53;;
69083;SDS011;56185;48.526;9.044;2023-06-04T03:05:29;9.90;;;7.07;;
69083;SDS011;56185;48.526;9.044;2023-06-04T03:07:54;10.05;;;7.15;;
69083;SDS011;56185;48.526;9.044;2023-06-04T03:10:19;11.17;;;7.30;;
69083;SDS011;56185;48.526;9.044;2023-06-04T03:12:45;11.68;;;6.90;;
69083;SDS011;56185;48.526;9.044;2023-06-04T03:15:10;10.20;;;7.13;;
69083;SDS011;56185;48.526;9.044;2023-06-04T03:17:36;8.95;;;6.82;;
69083;SDS011;56185;48.526;9.044;2023-06-04T03:20:01;11.48;;;6.43;;
69083;SDS011;56185;48.526;9.044;2023-06-04T03:22:26;9.38;;;6.28;;
69083;SDS011;56185;48.526;9.044;2023-06-04T03:24:52;8.10;;;6.15;;
69083;SDS011;56185;48.526;9.044;2023-06-04T03:27:17;11.30;;;6.28;;
69083;SDS011;56185;48.526;9.044;2023-06-04T03:29:42;8.13;;;5.57;;
69083;SDS011;56185;48.526;9.044;2023-06-04T03:32:08;10.00;;;6.07;;
69083;SDS011;56185;48.526;9.044;2023-06-04T03:34:33;9.80;;;5.93;;
69083;SDS011;56185;48.526;9.044;2023-06-04T03:36:59;9.60;;;6.45;;
69083;SDS011;56185;48.526;9.044;2023-06-04T03:39:24;9.98;;;6.63;;
69083;SDS011;56185;48.526;9.044;2023-06-04T03:41:49;9.07;;;6.50;;
69083;SDS011;56185;48.526;9.044;2023-06-04T03:44:15;9.35;;;6.30;;
69083;SDS011;56185;48.526;9.044;2023-06-04T03:46:41;10.32;;;6.18;;
69083;SDS011;56185;48.526;9.044;2023-06-04T03:49:08;9.85;;;6.57;;
69083;SDS011;56185;48.526;9.044;2023-06-04T03:51:39;12.65;;;7.10;;
69083;SDS011;56185;48.526;9.044;2023-06-04T03:54:06;9.05;;;6.70;;
69083;SDS011;56185;48.526;9.044;2023-06-04T03:56:32;9.82;;;6.25;;
69083;SDS011;56185;48.526;9.044;2023-06-04T03:58:57;10.25;;;6.10;;
69083;SDS011;56185;48.526;9.044;2023-06-04T04:01:22;9.48;;;6.28;;
69083;SDS011;56185;48.526;9.044;2023-06-04T04:03:48;12.63;;;6.97;;
69083;SDS011;56185;48.526;9.044;2023-06-04T04:06:13;7.10;;;5.97;;
69083;SDS011;56185;48.526;9.044;2023-06-04T04:08:41;8.55;;;6.43;;
69083;SDS011;56185;48.526;9.044;2023-06-04T04:11:07;8.57;;;6.07;;
69083;SDS011;56185;48.526;9.044;2023-06-04T04:13:32;8.20;;;6.20;;
69083;SDS011;56185;48.526;9.044;2023-06-04T04:15:57;8.20;;;6.33;;
69083;SDS011;56185;48.526;9.044;2023-06-04T04:18:22;8.60;;;6.13;;
69083;SDS011;56185;48.526;9.044;2023-06-04T04:20:47;11.03;;;6.33;;
69083;SDS011;56185;48.526;9.044;2023-06-04T04:23:13;10.03;;;6.50;;
69083;SDS011;56185;48.526;9.044;2023-06-04T04:25:38;8.80;;;6.32;;
69083;SDS011;56185;48.526;9.044;2023-06-04T04:28:04;11.38;;;6.50;;
69083;SDS011;56185;48.526;9.044;2023-06-04T04:30:29;9.93;;;6.43;;
69083;SDS011;56185;48.526;9.044;2023-06-04T04:32:55;9.40;;;6.13;;
69083;SDS011;56185;48.526;9.044;2023-06-04T04:35:20;8.97;;;6.80;;
69083;SDS011;56185;48.526;9.044;2023-06-04T04:37:45;8.97;;;6.07;;
69083;SDS011;56185;48.526;9.044;2023-06-04T04:40:10;9.00;;;6.47;;
69083;SDS011;56185;48.526;9.044;2023-06-04T04:42:36;9.00;;;6.82;;
69083;SDS011;56185;48.526;9.044;2023-06-04T04:45:01;9.52;;;6.78;;
69083;SDS011;56185;48.526;9.044;2023-06-04T04:47:26;9.63;;;6.63;;
69083;SDS011;56185;48.526;9.044;2023-06-04T04:49:52;10.20;;;6.90;;
69083;SDS011;56185;48.526;9.044;2023-06-04T04:52:17;11.10;;;7.50;;
69083;SDS011;56185;48.526;9.044;2023-06-04T04:54:42;13.10;;;7.27;;
69083;SDS011;56185;48.526;9.044;2023-06-04T04:57:07;11.60;;;7.40;;
69083;SDS011;56185;48.526;9.044;2023-06-04T04:59:32;10.47;;;7.23;;
69083;SDS011;56185;48.526;9.044;2023-06-04T05:01:58;9.73;;;7.23;;
69083;SDS011;56185;48.526;9.044;2023-06-04T05:04:23;12.50;;;7.40;;
69083;SDS011;56185;48.526;9.044;2023-06-04T05:06:48;10.93;;;6.97;;
69083;SDS011;56185;48.526;9.044;2023-06-04T05:09:13;11.17;;;7.07;;
69083;SDS011;56185;48.526;9.044;2023-06-04T05:11:39;11.32;;;7.50;;
69083;SDS011;56185;48.526;9.044;2023-06-04T05:14:04;12.43;;;7.20;;
69083;SDS011;56185;48.526;9.044;2023-06-04T05:16:29;9.87;;;7.07;;
69083;SDS011;56185;48.526;9.044;2023-06-04T05:18:54;9.07;;;6.60;;
69083;SDS011;56185;48.526;9.044;2023-06-04T05:21:20;10.80;;;6.77;;
69083;SDS011;56185;48.526;9.044;2023-06-04T05:23:45;11.07;;;7.27;;
69083;SDS011;56185;48.526;9.044;2023-06-04T05:26:10;9.83;;;7.00;;
69083;SDS011;56185;48.526;9.044;2023-06-04T05:28:35;11.07;;;6.80;;
69083;SDS011;56185;48.526;9.044;2023-06-04T05:31:00;9.03;;;7.07;;
69083;SDS011;56185;48.526;9.044;2023-06-04T05:33:26;8.67;;;6.30;;
69083;SDS011;56185;48.526;9.044;2023-06-04T05:35:52;9.63;;;6.82;;
69083;SDS011;56185;48.526;9.044;2023-06-04T05:38:18;10.73;;;6.95;;
69083;SDS011;56185;48.526;9.044;2023-06-04T05:40:43;8.95;;;6.97;;
69083;SDS011;56185;48.526;9.044;2023-06-04T05:43:08;10.35;;;6.25;;
69083;SDS011;56185;48.526;9.044;2023-06-04T05:45:33;8.93;;;6.28;;
69083;SDS011;56185;48.526;9.044;2023-06-04T05:47:59;9.33;;;6.30;;
69083;SDS011;56185;48.526;9.044;2023-06-04T05:50:24;11.03;;;6.40;;
69083;SDS011;56185;48.526;9.044;2023-06-04T05:52:49;9.90;;;6.60;;
69083;SDS011;56185;48.526;9.044;2023-06-04T05:55:14;9.90;;;6.20;;
69083;SDS011;56185;48.526;9.044;2023-06-04T05:57:40;9.25;;;6.28;;
69083;SDS011;56185;48.526;9.044;2023-06-04T06:00:05;9.50;;;6.10;;
69083;SDS011;56185;48.526;9.044;2023-06-04T06:02:31;8.40;;;6.13;;
69083;SDS011;56185;48.526;9.044;2023-06-04T06:04:56;9.40;;;6.70;;
69083;SDS011;56185;48.526;9.044;2023-06-04T06:07:21;11.63;;;6.27;;
69083;SDS011;56185;48.526;9.044;2023-06-04T06:09:46;10.97;;;6.23;;
69083;SDS011;56185;48.526;9.044;2023-06-04T06:12:12;8.07;;;5.97;;
69083;SDS011;56185;48.526;9.044;2023-06-04T06:14:37;9.00;;;5.82;;
69083;SDS011;56185;48.526;9.044;2023-06-04T06:17:02;10.53;;;6.07;;
69083;SDS011;56185;48.526;9.044;2023-06-04T06:19:27;8.65;;;5.90;;
69083;SDS011;56185;48.526;9.044;2023-06-04T06:21:53;8.57;;;5.60;;
69083;SDS011;56185;48.526;9.044;2023-06-04T06:24:18;7.50;;;5.33;;
69083;SDS011;56185;48.526;9.044;2023-06-04T06:26:43;7.63;;;5.00;;
69083;SDS011;56185;48.526;9.044;2023-06-04T06:29:08;5.50;;;3.70;;
69083;SDS011;56185;48.526;9.044;2023-06-04T06:31:34;7.13;;;4.10;;
69083;SDS011;56185;48.526;9.044;2023-06-04T06:33:59;5.77;;;3.57;;
69083;SDS011;56185;48.526;9.044;2023-06-04T06:36:24;5.77;;;3.93;;
69083;SDS011;56185;48.526;9.044;2023-06-04T06:38:49;6.17;;;3.60;;
69083;SDS011;56185;48.526;9.044;2023-06-04T06:41:14;6.07;;;3.70;;
69083;SDS011;56185;48.526;9.044;2023-06-04T06:43:40;5.43;;;3.28;;
69083;SDS011;56185;48.526;9.044;2023-06-04T06:46:05;4.50;;;3.17;;
69083;SDS011;56185;48.526;9.044;2023-06-04T06:48:30;4.77;;;2.70;;
69083;SDS011;56185;48.526;9.044;2023-06-04T06:50:55;6.67;;;3.20;;
69083;SDS011;56185;48.526;9.044;2023-06-04T06:53:21;6.17;;;3.33;;
69083;SDS011;56185;48.526;9.044;2023-06-04T06:55:46;7.93;;;3.05;;
69083;SDS011;56185;48.526;9.044;2023-06-04T06:58:12;4.38;;;2.50;;
69083;SDS011;56185;48.526;9.044;2023-06-04T07:00:37;5.63;;;3.00;;
69083;SDS011;56185;48.526;9.044;2023-06-04T07:03:02;5.27;;;2.67;;
69083;SDS011;56185;48.526;9.044;2023-06-04T07:05:27;6.80;;;2.60;;
69083;SDS011;56185;48.526;9.044;2023-06-04T07:07:53;3.50;;;2.37;;
69083;SDS011;56185;48.526;9.044;2023-06-04T07:10:18;5.10;;;2.47;;
69083;SDS011;56185;48.526;9.044;2023-06-04T07:12:43;4.83;;;2.53;;
69083;SDS011;56185;48.526;9.044;2023-06-04T07:15:08;3.13;;;2.23;;
69083;SDS011;56185;48.526;9.044;2023-06-04T07:17:34;4.57;;;2.40;;
69083;SDS011;56185;48.526;9.044;2023-06-04T07:19:59;3.73;;;2.30;;
69083;SDS011;56185;48.526;9.044;2023-06-04T07:22:24;4.40;;;2.40;;
69083;SDS011;56185;48.526;9.044;2023-06-04T07:24:49;5.27;;;2.47;;
69083;SDS011;56185;48.526;9.044;2023-06-04T07:27:15;4.67;;;2.60;;
69083;SDS011;56185;48.526;9.044;2023-06-04T07:29:42;4.70;;;2.50;;
69083;SDS011;56185;48.526;9.044;2023-06-04T07:32:08;5.10;;;2.53;;
69083;SDS011;56185;48.526;9.044;2023-06-04T07:34:33;5.40;;;2.23;;
69083;SDS011;56185;48.526;9.044;2023-06-04T07:36:59;3.97;;;2.23;;
69083;SDS011;56185;48.526;9.044;2023-06-04T07:39:24;5.20;;;2.70;;
69083;SDS011;56185;48.526;9.044;2023-06-04T07:41:49;3.90;;;2.23;;
69083;SDS011;56185;48.526;9.044;2023-06-04T07:44:14;4.60;;;2.50;;
69083;SDS011;56185;48.526;9.044;2023-06-04T07:46:39;4.70;;;2.30;;
69083;SDS011;56185;48.526;9.044;2023-06-04T07:49:05;5.30;;;2.50;;
69083;SDS011;56185;48.526;9.044;2023-06-04T07:51:30;3.70;;;2.40;;
69083;SDS011;56185;48.526;9.044;2023-06-04T07:53:55;5.53;;;2.47;;
69083;SDS011;56185;48.526;9.044;2023-06-04T07:56:20;4.00;;;2.60;;
69083;SDS011;56185;48.526;9.044;2023-06-04T07:58:46;3.23;;;2.40;;
69083;SDS011;56185;48.526;9.044;2023-06-04T08:01:11;4.97;;;2.70;;
69083;SDS011;56185;48.526;9.044;2023-06-04T08:03:36;5.53;;;2.50;;
69083;SDS011;56185;48.526;9.044;2023-06-04T08:06:02;5.80;;;2.50;;
69083;SDS011;56185;48.526;9.044;2023-06-04T08:08:27;4.25;;;2.33;;
69083;SDS011;56185;48.526;9.044;2023-06-04T08:10:52;4.17;;;2.50;;
69083;SDS011;56185;48.526;9.044;2023-06-04T08:13:17;4.03;;;2.43;;
69083;SDS011;56185;48.526;9.044;2023-06-04T08:15:43;4.10;;;2.30;;
69083;SDS011;56185;48.526;9.044;2023-06-04T08:18:08;4.22;;;2.25;;
69083;SDS011;56185;48.526;9.044;2023-06-04T08:20:33;5.37;;;2.80;;
69083;SDS011;56185;48.526;9.044;2023-06-04T08:22:58;6.03;;;2.77;;
69083;SDS011;56185;48.526;9.044;2023-06-04T08:25:24;5.23;;;2.60;;
69083;SDS011;56185;48.526;9.044;2023-06-04T08:27:49;6.00;;;2.60;;
69083;SDS011;56185;48.526;9.044;2023-06-04T08:30:14;3.17;;;2.50;;
69083;SDS011;56185;48.526;9.044;2023-06-04T08:32:39;4.83;;;2.60;;
69083;SDS011;56185;48.526;9.044;2023-06-04T08:35:05;5.87;;;2.60;;
69083;SDS011;56185;48.526;9.044;2023-06-04T08:37:30;4.40;;;2.50;;
69083;SDS011;56185;48.526;9.044;2023-06-04T08:39:56;6.77;;;2.70;;
69083;SDS011;56185;48.526;9.044;2023-06-04T08:44:56;4.43;;;2.58;;
69083;SDS011;56185;48.526;9.044;2023-06-04T08:47:23;4.63;;;2.70;;
69083;SDS011;56185;48.526;9.044;2023-06-04T08:49:50;5.53;;;2.60;;
69083;SDS011;56185;48.526;9.044;2023-06-04T08:52:16;5.00;;;2.60;;
69083;SDS011;56185;48.526;9.044;2023-06-04T08:54:42;3.93;;;2.60;;
69083;SDS011;56185;48.526;9.044;2023-06-04T08:57:08;3.22;;;2.42;;
69083;SDS011;56185;48.526;9.044;2023-06-04T08:59:33;5.60;;;2.40;;
69083;SDS011;56185;48.526;9.044;2023-06-04T09:01:59;5.28;;;2.30;;
69083;SDS011;56185;48.526;9.044;2023-06-04T09:04:24;6.10;;;2.37;;
69083;SDS011;56185;48.526;9.044;2023-06-04T09:06:50;7.32;;;2.55;;
69083;SDS011;56185;48.526;9.044;2023-06-04T09:09:17;6.78;;;2.60;;
69083;SDS011;56185;48.526;9.044;2023-06-04T09:11:45;5.32;;;2.90;;
69083;SDS011;56185;48.526;9.044;2023-06-04T09:14:15;4.60;;;2.50;;
69083;SDS011;56185;48.526;9.044;2023-06-04T09:16:44;5.80;;;2.60;;
69083;SDS011;56185;48.526;9.044;2023-06-04T09:19:20;3.08;;;2.13;;
69083;SDS011;56185;48.526;9.044;2023-06-04T09:24:18;5.30;;;2.53;;
69083;SDS011;56185;48.526;9.044;2023-06-04T09:26:44;5.82;;;2.53;;
69083;SDS011;56185;48.526;9.044;2023-06-04T09:29:09;7.20;;;2.40;;
69083;SDS011;56185;48.526;9.044;2023-06-04T09:31:35;5.97;;;2.40;;
69083;SDS011;56185;48.526;9.044;2023-06-04T09:34:00;5.30;;;2.70;;
69083;SDS011;56185;48.526;9.044;2023-06-04T09:36:29;4.30;;;2.60;;
69083;SDS011;56185;48.526;9.044;2023-06-04T09:38:55;3.15;;;2.40;;
69083;SDS011;56185;48.526;9.044;2023-06-04T09:41:20;6.75;;;2.63;;
69083;SDS011;56185;48.526;9.044;2023-06-04T09:43:46;4.25;;;2.78;;
69083;SDS011;56185;48.526;9.044;2023-06-04T09:46:12;3.83;;;2.58;;
69083;SDS011;56185;48.526;9.044;2023-06-04T09:48:42;5.68;;;2.58;;
69083;SDS011;56185;48.526;9.044;2023-06-04T09:51:14;4.18;;;2.78;;
69083;SDS011;56185;48.526;9.044;2023-06-04T09:53:40;4.88;;;2.85;;
69083;SDS011;56185;48.526;9.044;2023-06-04T09:56:06;4.95;;;2.60;;
69083;SDS011;56185;48.526;9.044;2023-06-04T09:58:33;5.03;;;2.67;;
69083;SDS011;56185;48.526;9.044;2023-06-04T10:01:00;4.68;;;2.60;;
69083;SDS011;56185;48.526;9.044;2023-06-04T10:03:30;4.55;;;2.70;;
69083;SDS011;56185;48.526;9.044;2023-06-04T10:06:02;3.60;;;2.70;;
69083;SDS011;56185;48.526;9.044;2023-06-04T10:08:29;4.90;;;2.60;;
69083;SDS011;56185;48.526;9.044;2023-06-04T10:10:55;6.43;;;2.80;;
69083;SDS011;56185;48.526;9.044;2023-06-04T10:13:22;5.30;;;2.70;;
69083;SDS011;56185;48.526;9.044;2023-06-04T10:15:51;6.03;;;2.55;;
69083;SDS011;56185;48.526;9.044;2023-06-04T10:18:17;3.40;;;2.63;;
69083;SDS011;56185;48.526;9.044;2023-06-04T10:20:43;5.03;;;3.13;;
69083;SDS011;56185;48.526;9.044;2023-06-04T10:23:09;4.57;;;2.72;;
69083;SDS011;56185;48.526;9.044;2023-06-04T10:25:35;7.05;;;2.80;;
69083;SDS011;56185;48.526;9.044;2023-06-04T10:28:01;5.25;;;2.67;;
69083;SDS011;56185;48.526;9.044;2023-06-04T10:30:26;5.38;;;2.97;;
69083;SDS011;56185;48.526;9.044;2023-06-04T10:32:52;5.57;;;2.80;;
69083;SDS011;56185;48.526;9.044;2023-06-04T10:35:28;4.72;;;2.90;;
69083;SDS011;56185;48.526;9.044;2023-06-04T10:38:03;3.85;;;2.50;;
69083;SDS011;56185;48.526;9.044;2023-06-04T10:40:38;4.93;;;2.83;;
69083;SDS011;56185;48.526;9.044;2023-06-04T10:43:07;6.25;;;2.90;;
69083;SDS011;56185;48.526;9.044;2023-06-04T10:45:33;5.85;;;2.80;;
69083;SDS011;56185;48.526;9.044;2023-06-04T10:47:59;4.15;;;2.83;;
69083;SDS011;56185;48.526;9.044;2023-06-04T10:50:52;5.35;;;3.35;;
69083;SDS011;56185;48.526;9.044;2023-06-04T10:53:18;4.90;;;3.03;;
69083;SDS011;56185;48.526;9.044;2023-06-04T10:55:44;4.55;;;3.00;;
69083;SDS011;56185;48.526;9.044;2023-06-04T10:58:11;4.82;;;2.88;;
69083;SDS011;56185;48.526;9.044;2023-06-04T11:00:40;6.97;;;3.03;;
69083;SDS011;56185;48.526;9.044;2023-06-04T11:03:07;4.90;;;2.83;;
69083;SDS011;56185;48.526;9.044;2023-06-04T11:05:37;4.63;;;2.97;;
69083;SDS011;56185;48.526;9.044;2023-06-04T11:08:06;4.22;;;3.10;;
69083;SDS011;56185;48.526;9.044;2023-06-04T11:10:33;5.85;;;3.33;;
69083;SDS011;56185;48.526;9.044;2023-06-04T11:12:59;8.32;;;3.17;;
69083;SDS011;56185;48.526;9.044;2023-06-04T11:15:25;4.10;;;3.10;;
69083;SDS011;56185;48.526;9.044;2023-06-04T11:17:53;4.30;;;2.97;;
69083;SDS011;56185;48.526;9.044;2023-06-04T11:20:21;7.05;;;3.22;;
69083;SDS011;56185;48.526;9.044;2023-06-04T11:22:50;5.50;;;3.50;;
69083;SDS011;56185;48.526;9.044;2023-06-04T11:25:17;5.03;;;2.85;;
69083;SDS011;56185;48.526;9.044;2023-06-04T11:27:42;5.38;;;3.40;;
69083;SDS011;56185;48.526;9.044;2023-06-04T11:30:08;5.10;;;3.10;;
69083;SDS011;56185;48.526;9.044;2023-06-04T11:32:33;4.32;;;3.20;;
69083;SDS011;56185;48.526;9.044;2023-06-04T11:35:02;6.95;;;3.30;;
69083;SDS011;56185;48.526;9.044;2023-06-04T11:37:30;6.60;;;3.40;;
69083;SDS011;56185;48.526;9.044;2023-06-04T11:39:56;5.13;;;3.10;;
69083;SDS011;56185;48.526;9.044;2023-06-04T11:42:21;4.27;;;3.27;;
69083;SDS011;56185;48.526;9.044;2023-06-04T11:44:46;4.30;;;3.37;;
69083;SDS011;56185;48.526;9.044;2023-06-04T11:47:12;5.90;;;3.28;;
69083;SDS011;56185;48.526;9.044;2023-06-04T11:49:37;4.13;;;3.20;;
69083;SDS011;56185;48.526;9.044;2023-06-04T11:52:02;6.90;;;3.80;;
69083;SDS011;56185;48.526;9.044;2023-06-04T11:54:29;5.55;;;3.40;;
69083;SDS011;56185;48.526;9.044;2023-06-04T11:56:54;6.75;;;3.30;;
69083;SDS011;56185;48.526;9.044;2023-06-04T11:59:19;5.70;;;3.50;;
69083;SDS011;56185;48.526;9.044;2023-06-04T12:01:46;5.93;;;3.70;;
69083;SDS011;56185;48.526;9.044;2023-06-04T12:04:12;5.28;;;3.33;;
69083;SDS011;56185;48.526;9.044;2023-06-04T12:06:57;5.70;;;3.40;;
69083;SDS011;56185;48.526;9.044;2023-06-04T12:09:24;5.30;;;3.20;;
69083;SDS011;56185;48.526;9.044;2023-06-04T12:11:50;5.32;;;3.75;;
69083;SDS011;56185;48.526;9.044;2023-06-04T12:14:23;5.93;;;3.30;;
69083;SDS011;56185;48.526;9.044;2023-06-04T12:16:58;6.40;;;3.30;;
69083;SDS011;56185;48.526;9.044;2023-06-04T12:19:33;6.22;;;3.60;;
69083;SDS011;56185;48.526;9.044;2023-06-04T12:22:11;5.22;;;3.47;;
69083;SDS011;56185;48.526;9.044;2023-06-04T12:24:46;5.70;;;3.40;;
69083;SDS011;56185;48.526;9.044;2023-06-04T12:27:15;4.43;;;3.00;;
69083;SDS011;56185;48.526;9.044;2023-06-04T12:29:40;9.50;;;3.38;;
69083;SDS011;56185;48.526;9.044;2023-06-04T12:32:06;5.97;;;3.67;;
69083;SDS011;56185;48.526;9.044;2023-06-04T12:34:32;6.03;;;3.50;;
69083;SDS011;56185;48.526;9.044;2023-06-04T12:36:57;4.40;;;3.17;;
69083;SDS011;56185;48.526;9.044;2023-06-04T12:39:23;4.93;;;3.07;;
69083;SDS011;56185;48.526;9.044;2023-06-04T12:41:48;6.20;;;3.47;;
69083;SDS011;56185;48.526;9.044;2023-06-04T12:44:14;7.18;;;3.40;;
69083;SDS011;56185;48.526;9.044;2023-06-04T12:46:39;4.63;;;3.20;;
69083;SDS011;56185;48.526;9.044;2023-06-04T12:49:04;5.23;;;3.43;;
69083;SDS011;56185;48.526;9.044;2023-06-04T12:51:29;8.57;;;3.40;;
69083;SDS011;56185;48.526;9.044;2023-06-04T12:53:54;4.73;;;3.23;;
69083;SDS011;56185;48.526;9.044;2023-06-04T12:56:20;5.50;;;3.20;;
69083;SDS011;56185;48.526;9.044;2023-06-04T12:58:45;7.77;;;3.60;;
69083;SDS011;56185;48.526;9.044;2023-06-04T13:01:10;7.33;;;3.60;;
69083;SDS011;56185;48.526;9.044;2023-06-04T13:03:36;4.20;;;3.07;;
69083;SDS011;56185;48.526;9.044;2023-06-04T13:06:02;7.10;;;3.50;;
69083;SDS011;56185;48.526;9.044;2023-06-04T13:08:27;6.55;;;3.30;;
69083;SDS011;56185;48.526;9.044;2023-06-04T13:10:52;5.27;;;3.10;;
69083;SDS011;56185;48.526;9.044;2023-06-04T13:13:18;6.20;;;2.90;;
69083;SDS011;56185;48.526;9.044;2023-06-04T13:15:44;5.38;;;3.30;;
69083;SDS011;56185;48.526;9.044;2023-06-04T13:18:10;8.48;;;3.38;;
69083;SDS011;56185;48.526;9.044;2023-06-04T13:20:36;6.15;;;3.63;;
69083;SDS011;56185;48.526;9.044;2023-06-04T13:23:02;4.90;;;3.30;;
69083;SDS011;56185;48.526;9.044;2023-06-04T13:25:27;4.60;;;3.00;;
69083;SDS011;56185;48.526;9.044;2023-06-04T13:27:53;4.63;;;3.10;;
69083;SDS011;56185;48.526;9.044;2023-06-04T13:30:18;5.73;;;3.20;;
69083;SDS011;56185;48.526;9.044;2023-06-04T13:32:43;5.87;;;3.57;;
69083;SDS011;56185;48.526;9.044;2023-06-04T13:35:08;4.97;;;3.30;;
69083;SDS011;56185;48.526;9.044;2023-06-04T13:37:34;4.90;;;3.20;;
69083;SDS011;56185;48.526;9.044;2023-06-04T13:39:59;5.63;;;3.00;;
69083;SDS011;56185;48.526;9.044;2023-06-04T13:42:24;4.70;;;3.23;;
69083;SDS011;56185;48.526;9.044;2023-06-04T13:44:49;3.97;;;3.00;;
69083;SDS011;56185;48.526;9.044;2023-06-04T13:47:14;8.13;;;3.80;;
69083;SDS011;56185;48.526;9.044;2023-06-04T13:49:40;5.37;;;3.40;;
69083;SDS011;56185;48.526;9.044;2023-06-04T13:52:05;7.67;;;3.40;;
69083;SDS011;56185;48.526;9.044;2023-06-04T13:54:30;5.75;;;3.42;;
69083;SDS011;56185;48.526;9.044;2023-06-04T13:56:55;4.73;;;3.37;;
69083;SDS011;56185;48.526;9.044;2023-06-04T13:59:21;4.80;;;3.13;;
69083;SDS011;56185;48.526;9.044;2023-06-04T14:01:46;5.77;;;3.10;;
69083;SDS011;56185;48.526;9.044;2023-06-04T14:04:11;5.17;;;3.00;;
69083;SDS011;56185;48.526;9.044;2023-06-04T14:06:36;4.20;;;3.03;;
69083;SDS011;56185;48.526;9.044;2023-06-04T14:09:02;7.88;;;3.30;;
69083;SDS011;56185;48.526;9.044;2023-06-04T14:11:27;6.72;;;3.20;;
69083;SDS011;56185;48.526;9.044;2023-06-04T14:13:52;5.57;;;3.20;;
69083;SDS011;56185;48.526;9.044;2023-06-04T14:16:18;5.43;;;3.30;;
69083;SDS011;56185;48.526;9.044;2023-06-04T14:18:43;5.47;;;3.47;;
69083;SDS011;56185;48.526;9.044;2023-06-04T14:21:08;5.27;;;3.57;;
69083;SDS011;56185;48.526;9.044;2023-06-04T14:23:33;4.40;;;2.83;;
69083;SDS011;56185;48.526;9.044;2023-06-04T14:25:59;4.20;;;3.03;;
69083;SDS011;56185;48.526;9.044;2023-06-04T14:28:24;6.07;;;3.20;;
69083;SDS011;56185;48.526;9.044;2023-06-04T14:30:49;5.37;;;3.40;;
69083;SDS011;56185;48.526;9.044;2023-06-04T14:33:14;6.00;;;3.30;;
69083;SDS011;56185;48.526;9.044;2023-06-04T14:35:40;6.17;;;3.30;;
69083;SDS011;56185;48.526;9.044;2023-06-04T14:38:05;5.70;;;3.03;;
69083;SDS011;56185;48.526;9.044;2023-06-04T14:40:30;3.87;;;2.80;;
69083;SDS011;56185;48.526;9.044;2023-06-04T14:42:55;4.53;;;3.20;;
69083;SDS011;56185;48.526;9.044;2023-06-04T14:45:21;4.75;;;3.17;;
69083;SDS011;56185;48.526;9.044;2023-06-04T14:47:46;4.57;;;3.00;;